sensor_id;sensor_type;location;lat;lon;timestamp;pressure;altitude;pressure_sealevel;temperature;humidity
3150;BME280;32503;47.748;8.960;2023-01-16T00:00:11;95983.56;;;5.55;56.82
3150;BME280;32503;47.748;8.960;2023-01-16T00:02:38;95973.25;;;5.57;57.50
3150;BME280;32503;47.748;8.960;2023-01-16T00:05:06;95968.91;;;5.52;56.85
3150;BME280;32503;47.748;8.960;2023-01-16T00:07:33;95962.19;;;5.58;56.89
3150;BME280;32503;47.748;8.960;2023-01-16T00:10:00;95959.53;;;5.58;57.30
3150;BME280;32503;47.748;8.960;2023-01-16T00:12:28;95955.69;;;5.59;56.62
3150;BME280;32503;47.748;8.960;2023-01-16T00:14:55;95945.69;;;5.56;57.05
3150;BME280;32503;47.748;8.960;2023-01-16T00:17:23;95944.03;;;5.51;57.72
3150;BME280;32503;47.748;8.960;2023-01-16T00:19:50;95935.63;;;5.53;57.29
3150;BME280;32503;47.748;8.960;2023-01-16T00:22:17;95929.16;;;5.54;56.78
3150;BME280;32503;47.748;8.960;2023-01-16T00:24:44;95923.59;;;5.47;57.03
3150;BME280;32503;47.748;8.960;2023-01-16T00:27:11;95912.88;;;5.47;57.63
3150;BME280;32503;47.748;8.960;2023-01-16T00:29:38;95912.88;;;5.47;57.30
3150;BME280;32503;47.748;8.960;2023-01-16T00:32:06;95909.84;;;5.48;57.65
3150;BME280;32503;47.748;8.960;2023-01-16T00:34:34;95902.16;;;5.47;57.61
3150;BME280;32503;47.748;8.960;2023-01-16T00:37:01;95898.34;;;5.48;58.25
3150;BME280;32503;47.748;8.960;2023-01-16T00:39:28;95895.00;;;5.51;57.63
3150;BME280;32503;47.748;8.960;2023-01-16T00:41:55;95891.19;;;5.52;57.53
3150;BME280;32503;47.748;8.960;2023-01-16T00:44:22;95882.03;;;5.53;57.73
3150;BME280;32503;47.748;8.960;2023-01-16T00:46:49;95878.56;;;5.53;58.19
3150;BME280;32503;47.748;8.960;2023-01-16T00:49:17;95875.56;;;5.54;57.92
3150;BME280;32503;47.748;8.960;2023-01-16T00:51:45;95868.69;;;5.57;57.81
3150;BME280;32503;47.748;8.960;2023-01-16T00:54:12;95851.41;;;5.54;57.62
3150;BME280;32503;47.748;8.960;2023-01-16T00:56:39;95853.56;;;5.48;57.73
3150;BME280;32503;47.748;8.960;2023-01-16T00:59:06;95841.97;;;5.44;57.37
3150;BME280;32503;47.748;8.960;2023-01-16T01:01:33;95835.84;;;5.44;56.78
3150;BME280;32503;47.748;8.960;2023-01-16T01:04:00;95835.50;;;5.45;57.57
3150;BME280;32503;47.748;8.960;2023-01-16T01:06:27;95813.78;;;5.35;57.02
3150;BME280;32503;47.748;8.960;2023-01-16T01:08:56;95822.97;;;5.49;56.69
3150;BME280;32503;47.748;8.960;2023-01-16T01:11:23;95819.06;;;5.47;56.64
3150;BME280;32503;47.748;8.960;2023-01-16T01:13:50;95817.78;;;5.41;56.71
3150;BME280;32503;47.748;8.960;2023-01-16T01:16:17;95802.03;;;5.23;57.00
3150;BME280;32503;47.748;8.960;2023-01-16T01:18:44;95815.44;;;5.39;56.78
3150;BME280;32503;47.748;8.960;2023-01-16T01:21:11;95807.06;;;5.41;56.41
3150;BME280;32503;47.748;8.960;2023-01-16T01:23:38;95806.53;;;5.35;56.88
3150;BME280;32503;47.748;8.960;2023-01-16T01:26:08;95793.66;;;5.25;57.12
3150;BME280;32503;47.748;8.960;2023-01-16T01:28:36;95789.06;;;5.25;56.56
3150;BME280;32503;47.748;8.960;2023-01-16T01:31:04;95780.06;;;5.34;56.69
3150;BME280;32503;47.748;8.960;2023-01-16T01:33:31;95783.88;;;5.32;56.50
3150;BME280;32503;47.748;8.960;2023-01-16T01:35:58;95776.97;;;5.31;56.21
3150;BME280;32503;47.748;8.960;2023-01-16T01:38:25;95761.84;;;5.23;56.96
3150;BME280;32503;47.748;8.960;2023-01-16T01:40:53;95748.19;;;5.12;57.03
3150;BME280;32503;47.748;8.960;2023-01-16T01:43:21;95760.63;;;5.21;56.78
3150;BME280;32503;47.748;8.960;2023-01-16T01:45:52;95757.50;;;5.19;57.33
3150;BME280;32503;47.748;8.960;2023-01-16T01:48:24;95738.56;;;5.11;57.89
3150;BME280;32503;47.748;8.960;2023-01-16T01:50:56;95741.34;;;5.15;57.36
3150;BME280;32503;47.748;8.960;2023-01-16T01:53:30;95741.50;;;5.22;57.85
3150;BME280;32503;47.748;8.960;2023-01-16T01:56:04;95730.78;;;5.22;58.25
3150;BME280;32503;47.748;8.960;2023-01-16T01:58:38;95702.97;;;5.11;58.44
3150;BME280;32503;47.748;8.960;2023-01-16T02:01:05;95716.97;;;5.20;58.62
3150;BME280;32503;47.748;8.960;2023-01-16T02:03:35;95715.84;;;5.21;59.01
3150;BME280;32503;47.748;8.960;2023-01-16T02:06:08;95688.03;;;5.10;59.05
3150;BME280;32503;47.748;8.960;2023-01-16T02:08:41;95698.28;;;5.24;58.69
3150;BME280;32503;47.748;8.960;2023-01-16T02:11:13;95689.50;;;5.23;58.70
3150;BME280;32503;47.748;8.960;2023-01-16T02:13:55;95686.19;;;5.30;59.21
3150;BME280;32503;47.748;8.960;2023-01-16T02:16:23;95673.56;;;5.30;59.38
3150;BME280;32503;47.748;8.960;2023-01-16T02:19:14;95636.44;;;5.13;59.35
3150;BME280;32503;47.748;8.960;2023-01-16T02:25:56;95646.38;;;5.12;59.78
3150;BME280;32503;47.748;8.960;2023-01-16T02:31:56;95604.31;;;4.97;59.85
3150;BME280;32503;47.748;8.960;2023-01-16T02:34:46;95605.00;;;4.94;60.10
3150;BME280;32503;47.748;8.960;2023-01-16T02:37:27;95592.69;;;4.89;59.59
3150;BME280;32503;47.748;8.960;2023-01-16T02:40:13;95578.09;;;4.71;59.44
3150;BME280;32503;47.748;8.960;2023-01-16T02:42:48;95587.25;;;4.70;59.34
3150;BME280;32503;47.748;8.960;2023-01-16T02:45:29;95577.56;;;4.81;59.31
3150;BME280;32503;47.748;8.960;2023-01-16T02:48:07;95570.28;;;4.82;59.61
3150;BME280;32503;47.748;8.960;2023-01-16T02:50:44;95557.38;;;4.68;59.44
3150;BME280;32503;47.748;8.960;2023-01-16T02:53:17;95554.06;;;4.74;59.29
3150;BME280;32503;47.748;8.960;2023-01-16T02:55:49;95550.72;;;4.78;59.03
3150;BME280;32503;47.748;8.960;2023-01-16T02:58:19;95547.25;;;4.77;59.20
3150;BME280;32503;47.748;8.960;2023-01-16T03:00:53;95532.22;;;4.72;59.57
3150;BME280;32503;47.748;8.960;2023-01-16T03:03:39;95520.84;;;4.75;59.38
3150;BME280;32503;47.748;8.960;2023-01-16T03:06:33;95519.34;;;4.78;59.68
3150;BME280;32503;47.748;8.960;2023-01-16T03:09:19;95511.97;;;4.71;60.19
3150;BME280;32503;47.748;8.960;2023-01-16T03:12:02;95509.88;;;4.65;60.65
3150;BME280;32503;47.748;8.960;2023-01-16T03:14:38;95499.44;;;4.60;60.91
3150;BME280;32503;47.748;8.960;2023-01-16T03:17:21;95491.41;;;4.60;60.69
3150;BME280;32503;47.748;8.960;2023-01-16T03:20:08;95487.91;;;4.55;60.73
3150;BME280;32503;47.748;8.960;2023-01-16T03:22:45;95466.44;;;4.36;61.47
3150;BME280;32503;47.748;8.960;2023-01-16T03:25:28;95467.63;;;4.39;61.68
3150;BME280;32503;47.748;8.960;2023-01-16T03:28:07;95459.25;;;4.40;61.45
3150;BME280;32503;47.748;8.960;2023-01-16T03:30:47;95443.38;;;4.31;61.40
3150;BME280;32503;47.748;8.960;2023-01-16T03:33:26;95436.41;;;4.27;61.56
3150;BME280;32503;47.748;8.960;2023-01-16T03:36:04;95434.94;;;4.29;61.49
3150;BME280;32503;47.748;8.960;2023-01-16T03:38:33;95433.28;;;4.25;61.53
3150;BME280;32503;47.748;8.960;2023-01-16T03:41:04;95424.00;;;4.18;61.46
3150;BME280;32503;47.748;8.960;2023-01-16T03:43:35;95414.69;;;4.12;61.94
3150;BME280;32503;47.748;8.960;2023-01-16T03:46:06;95421.84;;;4.08;61.90
3150;BME280;32503;47.748;8.960;2023-01-16T03:48:41;95412.09;;;4.00;62.13
3150;BME280;32503;47.748;8.960;2023-01-16T03:51:18;95406.16;;;3.91;62.39
3150;BME280;32503;47.748;8.960;2023-01-16T03:53:51;95392.22;;;3.82;62.41
3150;BME280;32503;47.748;8.960;2023-01-16T03:56:27;95388.66;;;3.77;62.57
3150;BME280;32503;47.748;8.960;2023-01-16T03:58:57;95383.31;;;3.77;62.61
3150;BME280;32503;47.748;8.960;2023-01-16T04:01:32;95375.22;;;3.74;62.49
3150;BME280;32503;47.748;8.960;2023-01-16T04:04:06;95362.91;;;3.69;62.39
3150;BME280;32503;47.748;8.960;2023-01-16T04:06:43;95340.47;;;3.58;62.88
3150;BME280;32503;47.748;8.960;2023-01-16T04:09:17;95346.34;;;3.64;62.47
3150;BME280;32503;47.748;8.960;2023-01-16T04:11:47;95338.16;;;3.56;62.94
3150;BME280;32503;47.748;8.960;2023-01-16T04:14:16;95323.44;;;3.47;63.23
3150;BME280;32503;47.748;8.960;2023-01-16T04:16:45;95324.69;;;3.53;63.13
3150;BME280;32503;47.748;8.960;2023-01-16T04:19:13;95323.09;;;3.48;63.24
3150;BME280;32503;47.748;8.960;2023-01-16T04:21:46;95285.94;;;3.27;63.20
3150;BME280;32503;47.748;8.960;2023-01-16T04:24:14;95297.06;;;3.45;63.54
3150;BME280;32503;47.748;8.960;2023-01-16T04:26:42;95290.94;;;3.45;62.69
3150;BME280;32503;47.748;8.960;2023-01-16T04:29:09;95287.75;;;3.39;63.44
3150;BME280;32503;47.748;8.960;2023-01-16T04:31:36;95280.00;;;3.34;63.37
3150;BME280;32503;47.748;8.960;2023-01-16T04:34:03;95267.25;;;3.27;63.80
3150;BME280;32503;47.748;8.960;2023-01-16T04:36:30;95262.34;;;3.29;63.10
3150;BME280;32503;47.748;8.960;2023-01-16T04:38:59;95256.16;;;3.25;63.14
3150;BME280;32503;47.748;8.960;2023-01-16T04:41:26;95249.84;;;3.17;63.63
3150;BME280;32503;47.748;8.960;2023-01-16T04:44:03;95239.78;;;3.11;64.05
3150;BME280;32503;47.748;8.960;2023-01-16T04:46:30;95235.56;;;3.10;64.32
3150;BME280;32503;47.748;8.960;2023-01-16T04:48:57;95223.69;;;3.07;64.38
3150;BME280;32503;47.748;8.960;2023-01-16T04:51:25;95227.03;;;3.04;64.41
3150;BME280;32503;47.748;8.960;2023-01-16T04:53:52;95221.19;;;2.98;64.30
3150;BME280;32503;47.748;8.960;2023-01-16T04:56:20;95229.78;;;2.76;65.74
3150;BME280;32503;47.748;8.960;2023-01-16T04:58:47;95220.81;;;2.84;64.65
3150;BME280;32503;47.748;8.960;2023-01-16T05:01:16;95221.00;;;2.75;65.08
3150;BME280;32503;47.748;8.960;2023-01-16T05:03:43;95201.53;;;2.75;65.18
3150;BME280;32503;47.748;8.960;2023-01-16T05:06:10;95176.75;;;2.58;65.53
3150;BME280;32503;47.748;8.960;2023-01-16T05:08:37;95173.16;;;2.67;65.54
3150;BME280;32503;47.748;8.960;2023-01-16T05:11:05;95172.03;;;2.68;65.64
3150;BME280;32503;47.748;8.960;2023-01-16T05:13:33;95152.50;;;2.63;65.85
3150;BME280;32503;47.748;8.960;2023-01-16T05:16:00;95147.25;;;2.67;65.24
3150;BME280;32503;47.748;8.960;2023-01-16T05:18:28;95143.88;;;2.70;65.59
3150;BME280;32503;47.748;8.960;2023-01-16T05:20:55;95134.31;;;2.69;65.10
3150;BME280;32503;47.748;8.960;2023-01-16T05:23:22;95123.22;;;2.67;65.48
3150;BME280;32503;47.748;8.960;2023-01-16T05:25:49;95112.47;;;2.63;65.09
3150;BME280;32503;47.748;8.960;2023-01-16T05:28:16;95109.81;;;2.63;65.82
3150;BME280;32503;47.748;8.960;2023-01-16T05:30:47;95090.53;;;2.54;65.99
3150;BME280;32503;47.748;8.960;2023-01-16T05:33:14;95104.31;;;2.56;65.80
3150;BME280;32503;47.748;8.960;2023-01-16T05:35:41;95089.41;;;2.55;66.00
3150;BME280;32503;47.748;8.960;2023-01-16T05:38:08;95090.53;;;2.54;65.75
3150;BME280;32503;47.748;8.960;2023-01-16T05:40:35;95072.56;;;2.51;65.75
3150;BME280;32503;47.748;8.960;2023-01-16T05:43:03;95069.47;;;2.49;65.98
3150;BME280;32503;47.748;8.960;2023-01-16T05:45:30;95065.31;;;2.36;66.90
3150;BME280;32503;47.748;8.960;2023-01-16T05:47:58;95045.91;;;2.35;66.18
3150;BME280;32503;47.748;8.960;2023-01-16T05:50:25;95038.75;;;2.23;66.80
3150;BME280;32503;47.748;8.960;2023-01-16T05:52:52;95033.41;;;2.23;67.13
3150;BME280;32503;47.748;8.960;2023-01-16T05:55:19;95033.94;;;2.29;66.56
3150;BME280;32503;47.748;8.960;2023-01-16T05:57:46;95022.06;;;2.26;66.95
3150;BME280;32503;47.748;8.960;2023-01-16T06:00:15;95012.09;;;2.23;66.56
3150;BME280;32503;47.748;8.960;2023-01-16T06:02:42;95002.97;;;2.24;66.84
3150;BME280;32503;47.748;8.960;2023-01-16T06:05:12;95004.19;;;2.27;67.19
3150;BME280;32503;47.748;8.960;2023-01-16T06:07:39;94995.56;;;2.34;66.99
3150;BME280;32503;47.748;8.960;2023-01-16T06:10:09;94997.75;;;2.28;67.05
3150;BME280;32503;47.748;8.960;2023-01-16T06:12:36;94979.41;;;2.26;66.67
3150;BME280;32503;47.748;8.960;2023-01-16T06:15:04;94970.28;;;2.27;66.77
3150;BME280;32503;47.748;8.960;2023-01-16T06:17:32;94962.28;;;2.27;66.96
3150;BME280;32503;47.748;8.960;2023-01-16T06:19:59;94945.13;;;2.44;67.66
3150;BME280;32503;47.748;8.960;2023-01-16T06:22:27;94938.50;;;4.02;72.37
3150;BME280;32503;47.748;8.960;2023-01-16T06:24:54;94929.56;;;4.74;72.12
3150;BME280;32503;47.748;8.960;2023-01-16T06:27:21;94915.25;;;4.59;69.81
3150;BME280;32503;47.748;8.960;2023-01-16T06:29:48;94909.03;;;4.25;67.74
3150;BME280;32503;47.748;8.960;2023-01-16T06:32:15;94890.22;;;3.91;66.73
3150;BME280;32503;47.748;8.960;2023-01-16T06:34:43;94892.03;;;3.60;66.42
3150;BME280;32503;47.748;8.960;2023-01-16T06:37:10;94869.28;;;3.23;65.46
3150;BME280;32503;47.748;8.960;2023-01-16T06:39:39;94875.28;;;3.17;66.07
3150;BME280;32503;47.748;8.960;2023-01-16T06:42:06;94866.25;;;3.02;65.29
3150;BME280;32503;47.748;8.960;2023-01-16T06:44:35;94861.06;;;2.90;66.06
3150;BME280;32503;47.748;8.960;2023-01-16T06:47:02;94856.50;;;2.71;65.12
3150;BME280;32503;47.748;8.960;2023-01-16T06:49:29;94851.66;;;2.57;65.60
3150;BME280;32503;47.748;8.960;2023-01-16T06:51:56;94848.09;;;2.49;65.62
3150;BME280;32503;47.748;8.960;2023-01-16T06:54:25;94842.75;;;2.49;65.62
3150;BME280;32503;47.748;8.960;2023-01-16T06:56:54;94832.84;;;2.50;66.18
3150;BME280;32503;47.748;8.960;2023-01-16T06:59:21;94827.94;;;2.52;66.19
3150;BME280;32503;47.748;8.960;2023-01-16T07:01:48;94821.16;;;2.54;66.12
3150;BME280;32503;47.748;8.960;2023-01-16T07:04:15;94824.09;;;2.49;65.98
3150;BME280;32503;47.748;8.960;2023-01-16T07:06:42;94816.22;;;2.56;65.76
3150;BME280;32503;47.748;8.960;2023-01-16T07:09:10;94814.03;;;2.62;65.90
3150;BME280;32503;47.748;8.960;2023-01-16T07:11:37;94815.44;;;2.56;65.65
3150;BME280;32503;47.748;8.960;2023-01-16T07:14:06;94808.50;;;2.51;65.86
3150;BME280;32503;47.748;8.960;2023-01-16T07:16:50;94811.84;;;2.68;66.37
3150;BME280;32503;47.748;8.960;2023-01-16T07:19:35;94804.84;;;3.25;66.22
3150;BME280;32503;47.748;8.960;2023-01-16T07:22:20;94807.72;;;3.89;64.97
3150;BME280;32503;47.748;8.960;2023-01-16T07:25:08;94801.66;;;4.23;63.57
3150;BME280;32503;47.748;8.960;2023-01-16T07:27:36;94803.13;;;4.50;62.72
3150;BME280;32503;47.748;8.960;2023-01-16T07:30:07;94788.19;;;5.24;61.41
3150;BME280;32503;47.748;8.960;2023-01-16T07:32:34;94793.16;;;6.48;59.23
3150;BME280;32503;47.748;8.960;2023-01-16T07:35:01;94781.84;;;7.33;56.26
3150;BME280;32503;47.748;8.960;2023-01-16T07:37:28;94772.25;;;7.47;53.83
3150;BME280;32503;47.748;8.960;2023-01-16T07:39:55;94770.72;;;7.60;53.04
3150;BME280;32503;47.748;8.960;2023-01-16T07:42:23;94754.22;;;7.18;52.88
3150;BME280;32503;47.748;8.960;2023-01-16T07:44:50;94741.06;;;6.63;53.11
3150;BME280;32503;47.748;8.960;2023-01-16T07:47:18;94730.94;;;6.10;54.26
3150;BME280;32503;47.748;8.960;2023-01-16T07:49:45;94726.06;;;5.63;54.99
3150;BME280;32503;47.748;8.960;2023-01-16T07:52:12;94733.84;;;5.27;56.24
3150;BME280;32503;47.748;8.960;2023-01-16T07:54:39;94725.97;;;4.97;56.80
3150;BME280;32503;47.748;8.960;2023-01-16T07:57:06;94723.41;;;4.67;57.62
3150;BME280;32503;47.748;8.960;2023-01-16T07:59:34;94723.59;;;4.47;58.21
3150;BME280;32503;47.748;8.960;2023-01-16T08:02:01;94713.56;;;4.37;58.81
3150;BME280;32503;47.748;8.960;2023-01-16T08:04:31;94709.69;;;4.31;59.25
3150;BME280;32503;47.748;8.960;2023-01-16T08:06:58;94690.13;;;4.27;59.53
3150;BME280;32503;47.748;8.960;2023-01-16T08:09:25;94692.47;;;4.32;59.96
3150;BME280;32503;47.748;8.960;2023-01-16T08:11:52;94693.75;;;4.42;59.57
3150;BME280;32503;47.748;8.960;2023-01-16T08:14:19;94676.91;;;4.41;59.54
3150;BME280;32503;47.748;8.960;2023-01-16T08:16:46;94662.31;;;4.35;59.68
3150;BME280;32503;47.748;8.960;2023-01-16T08:19:13;94664.56;;;4.29;59.64
3150;BME280;32503;47.748;8.960;2023-01-16T08:21:42;94664.38;;;4.11;60.68
3150;BME280;32503;47.748;8.960;2023-01-16T08:24:09;94671.81;;;3.95;61.35
3150;BME280;32503;47.748;8.960;2023-01-16T08:26:38;94691.53;;;3.79;62.00
3150;BME280;32503;47.748;8.960;2023-01-16T08:29:06;94704.50;;;3.81;62.17
3150;BME280;32503;47.748;8.960;2023-01-16T08:31:33;94708.72;;;3.82;61.78
3150;BME280;32503;47.748;8.960;2023-01-16T08:34:01;94698.72;;;3.75;62.52
3150;BME280;32503;47.748;8.960;2023-01-16T08:36:28;94670.69;;;3.62;62.72
3150;BME280;32503;47.748;8.960;2023-01-16T08:38:57;94624.44;;;3.58;62.78
3150;BME280;32503;47.748;8.960;2023-01-16T08:41:24;94627.41;;;3.53;63.00
3150;BME280;32503;47.748;8.960;2023-01-16T08:44:09;94662.09;;;3.49;63.51
3150;BME280;32503;47.748;8.960;2023-01-16T08:46:59;94709.44;;;3.49;63.74
3150;BME280;32503;47.748;8.960;2023-01-16T08:49:45;94692.91;;;3.39;64.58
3150;BME280;32503;47.748;8.960;2023-01-16T08:52:30;94663.88;;;3.38;64.69
3150;BME280;32503;47.748;8.960;2023-01-16T08:54:59;94687.88;;;3.34;64.89
3150;BME280;32503;47.748;8.960;2023-01-16T08:57:27;94673.25;;;3.28;65.28
3150;BME280;32503;47.748;8.960;2023-01-16T08:59:54;94636.84;;;3.13;66.25
3150;BME280;32503;47.748;8.960;2023-01-16T09:02:22;94583.22;;;3.25;65.19
3150;BME280;32503;47.748;8.960;2023-01-16T09:04:49;94639.69;;;3.27;65.68
3150;BME280;32503;47.748;8.960;2023-01-16T09:07:16;94658.44;;;3.31;65.89
3150;BME280;32503;47.748;8.960;2023-01-16T09:09:43;94642.00;;;3.29;65.81
3150;BME280;32503;47.748;8.960;2023-01-16T09:12:13;94650.69;;;3.22;66.12
3150;BME280;32503;47.748;8.960;2023-01-16T09:14:58;94581.72;;;3.28;66.25
3150;BME280;32503;47.748;8.960;2023-01-16T09:17:27;94554.47;;;3.15;66.70
3150;BME280;32503;47.748;8.960;2023-01-16T09:19:54;94604.41;;;3.11;67.15
3150;BME280;32503;47.748;8.960;2023-01-16T09:22:22;94642.28;;;3.20;66.86
3150;BME280;32503;47.748;8.960;2023-01-16T09:24:49;94642.28;;;3.20;66.89
3150;BME280;32503;47.748;8.960;2023-01-16T09:27:18;94635.88;;;3.28;67.24
3150;BME280;32503;47.748;8.960;2023-01-16T09:29:45;94654.25;;;3.33;67.62
3150;BME280;32503;47.748;8.960;2023-01-16T09:32:12;94641.34;;;3.35;67.49
3150;BME280;32503;47.748;8.960;2023-01-16T09:34:40;94642.09;;;3.36;67.53
3150;BME280;32503;47.748;8.960;2023-01-16T09:37:08;94648.22;;;3.36;67.17
3150;BME280;32503;47.748;8.960;2023-01-16T09:39:35;94653.94;;;3.38;67.24
3150;BME280;32503;47.748;8.960;2023-01-16T09:42:23;94636.91;;;3.47;67.37
3150;BME280;32503;47.748;8.960;2023-01-16T09:45:16;94648.78;;;3.53;66.76
3150;BME280;32503;47.748;8.960;2023-01-16T09:47:49;94622.28;;;3.67;66.80
3150;BME280;32503;47.748;8.960;2023-01-16T09:50:26;94611.63;;;3.71;66.80
3150;BME280;32503;47.748;8.960;2023-01-16T09:52:57;94637.19;;;3.72;66.33
3150;BME280;32503;47.748;8.960;2023-01-16T09:55:46;94628.81;;;3.73;66.72
3150;BME280;32503;47.748;8.960;2023-01-16T09:58:33;94628.81;;;3.73;66.35
3150;BME280;32503;47.748;8.960;2023-01-16T10:01:05;94623.47;;;3.73;66.50
3150;BME280;32503;47.748;8.960;2023-01-16T10:03:33;94644.53;;;3.78;66.20
3150;BME280;32503;47.748;8.960;2023-01-16T10:06:22;94642.72;;;3.86;65.97
3150;BME280;32503;47.748;8.960;2023-01-16T10:09:05;94661.88;;;3.92;65.86
3150;BME280;32503;47.748;8.960;2023-01-16T10:11:41;94654.94;;;3.87;65.74
3150;BME280;32503;47.748;8.960;2023-01-16T10:14:30;94658.81;;;3.93;65.85
3150;BME280;32503;47.748;8.960;2023-01-16T10:17:14;94653.47;;;3.93;65.38
3150;BME280;32503;47.748;8.960;2023-01-16T10:20:16;94638.25;;;3.97;65.48
3150;BME280;32503;47.748;8.960;2023-01-16T10:23:01;94631.38;;;3.96;65.17
3150;BME280;32503;47.748;8.960;2023-01-16T10:25:39;94616.94;;;4.05;64.62
3150;BME280;32503;47.748;8.960;2023-01-16T10:28:25;94598.66;;;4.10;64.14
3150;BME280;32503;47.748;8.960;2023-01-16T10:31:01;94579.63;;;4.15;63.98
3150;BME280;32503;47.748;8.960;2023-01-16T10:33:36;94563.56;;;4.15;63.73
3150;BME280;32503;47.748;8.960;2023-01-16T10:36:10;94561.31;;;4.17;64.03
3150;BME280;32503;47.748;8.960;2023-01-16T10:38:42;94567.88;;;4.24;63.57
3150;BME280;32503;47.748;8.960;2023-01-16T10:41:16;94569.03;;;4.30;63.63
3150;BME280;32503;47.748;8.960;2023-01-16T10:44:05;94555.66;;;4.26;62.95
3150;BME280;32503;47.748;8.960;2023-01-16T10:46:53;94552.25;;;4.29;63.31
3150;BME280;32503;47.748;8.960;2023-01-16T10:49:38;94532.06;;;4.39;63.00
3150;BME280;32503;47.748;8.960;2023-01-16T10:52:05;94552.38;;;4.47;62.49
3150;BME280;32503;47.748;8.960;2023-01-16T10:54:33;94555.44;;;4.49;62.22
3150;BME280;32503;47.748;8.960;2023-01-16T10:57:00;94542.44;;;4.48;62.08
3150;BME280;32503;47.748;8.960;2023-01-16T10:59:30;94522.63;;;4.56;61.98
3150;BME280;32503;47.748;8.960;2023-01-16T11:02:13;94534.13;;;4.64;61.66
3150;BME280;32503;47.748;8.960;2023-01-16T11:04:43;94528.06;;;4.70;61.17
3150;BME280;32503;47.748;8.960;2023-01-16T11:07:15;94518.53;;;4.73;60.63
3150;BME280;32503;47.748;8.960;2023-01-16T11:09:44;94507.44;;;4.74;60.45
3150;BME280;32503;47.748;8.960;2023-01-16T11:12:18;94497.53;;;4.75;60.07
3150;BME280;32503;47.748;8.960;2023-01-16T11:15:14;94487.53;;;4.68;59.79
3150;BME280;32503;47.748;8.960;2023-01-16T11:18:01;94490.19;;;4.65;59.76
3150;BME280;32503;47.748;8.960;2023-01-16T11:21:13;94498.25;;;4.72;60.14
3150;BME280;32503;47.748;8.960;2023-01-16T11:23:44;94486.78;;;4.71;59.95
3150;BME280;32503;47.748;8.960;2023-01-16T11:26:14;94486.78;;;4.68;60.24
3150;BME280;32503;47.748;8.960;2023-01-16T11:28:45;94500.94;;;4.72;60.33
3150;BME280;32503;47.748;8.960;2023-01-16T11:31:19;94456.50;;;4.56;60.35
3150;BME280;32503;47.748;8.960;2023-01-16T11:33:51;94471.84;;;4.63;59.94
3150;BME280;32503;47.748;8.960;2023-01-16T11:36:24;94477.56;;;4.62;60.44
3150;BME280;32503;47.748;8.960;2023-01-16T11:38:53;94473.78;;;4.70;60.24
3150;BME280;32503;47.748;8.960;2023-01-16T11:41:24;94453.50;;;4.69;60.41
3150;BME280;32503;47.748;8.960;2023-01-16T11:44:12;94442.44;;;4.74;60.50
3150;BME280;32503;47.748;8.960;2023-01-16T11:46:59;94431.00;;;4.77;60.17
3150;BME280;32503;47.748;8.960;2023-01-16T11:49:35;94425.63;;;4.73;60.48
3150;BME280;32503;47.748;8.960;2023-01-16T11:52:02;94400.31;;;4.56;60.71
3150;BME280;32503;47.748;8.960;2023-01-16T11:54:32;94418.34;;;4.70;60.71
3150;BME280;32503;47.748;8.960;2023-01-16T11:57:27;94422.59;;;4.75;60.75
3150;BME280;32503;47.748;8.960;2023-01-16T12:00:22;94423.75;;;4.85;60.77
3150;BME280;32503;47.748;8.960;2023-01-16T12:03:11;94428.75;;;4.86;61.27
3150;BME280;32503;47.748;8.960;2023-01-16T12:05:56;94442.53;;;4.92;60.64
3150;BME280;32503;47.748;8.960;2023-01-16T12:08:46;94430.31;;;4.98;60.70
3150;BME280;32503;47.748;8.960;2023-01-16T12:11:25;94421.13;;;4.99;60.77
3150;BME280;32503;47.748;8.960;2023-01-16T12:14:02;94421.56;;;5.05;60.14
3150;BME280;32503;47.748;8.960;2023-01-16T12:17:00;94423.44;;;5.08;60.14
3150;BME280;32503;47.748;8.960;2023-01-16T12:20:02;94405.88;;;5.07;59.74
3150;BME280;32503;47.748;8.960;2023-01-16T12:23:11;94411.25;;;5.10;60.36
3150;BME280;32503;47.748;8.960;2023-01-16T12:25:48;94415.06;;;5.13;60.45
3150;BME280;32503;47.748;8.960;2023-01-16T12:28:30;94416.59;;;5.14;60.24
3150;BME280;32503;47.748;8.960;2023-01-16T12:31:24;94403.66;;;5.52;63.95
3150;BME280;32503;47.748;8.960;2023-01-16T12:34:29;94404.06;;;5.83;62.67
3150;BME280;32503;47.748;8.960;2023-01-16T12:37:25;94388.38;;;5.78;60.63
3150;BME280;32503;47.748;8.960;2023-01-16T12:40:07;94365.38;;;5.66;60.18
3150;BME280;32503;47.748;8.960;2023-01-16T12:42:50;94360.41;;;5.72;60.07
3150;BME280;32503;47.748;8.960;2023-01-16T12:45:47;94365.75;;;5.64;59.72
3150;BME280;32503;47.748;8.960;2023-01-16T12:48:49;94338.97;;;5.64;60.45
3150;BME280;32503;47.748;8.960;2023-01-16T12:51:44;94347.78;;;5.76;60.66
3150;BME280;32503;47.748;8.960;2023-01-16T12:54:40;94334.75;;;5.81;60.29
3150;BME280;32503;47.748;8.960;2023-01-16T12:57:41;94322.88;;;5.79;60.03
3150;BME280;32503;47.748;8.960;2023-01-16T13:00:14;94300.28;;;5.83;59.38
3150;BME280;32503;47.748;8.960;2023-01-16T13:02:48;94308.28;;;6.08;58.60
3150;BME280;32503;47.748;8.960;2023-01-16T13:05:21;94304.06;;;6.22;58.40
3150;BME280;32503;47.748;8.960;2023-01-16T13:07:56;94294.03;;;6.33;57.96
3150;BME280;32503;47.748;8.960;2023-01-16T13:10:29;94286.31;;;6.50;58.00
3150;BME280;32503;47.748;8.960;2023-01-16T13:13:19;94268.97;;;6.69;57.58
3150;BME280;32503;47.748;8.960;2023-01-16T13:15:59;94272.34;;;6.83;56.83
3150;BME280;32503;47.748;8.960;2023-01-16T13:18:32;94270.75;;;6.90;56.87
3150;BME280;32503;47.748;8.960;2023-01-16T13:21:04;94255.81;;;6.89;57.00
3150;BME280;32503;47.748;8.960;2023-01-16T13:23:36;94245.06;;;6.92;57.26
3150;BME280;32503;47.748;8.960;2023-01-16T13:26:09;94259.56;;;6.98;56.82
3150;BME280;32503;47.748;8.960;2023-01-16T13:28:45;94248.84;;;6.95;57.46
3150;BME280;32503;47.748;8.960;2023-01-16T13:31:25;94253.09;;;6.96;57.28
3150;BME280;32503;47.748;8.960;2023-01-16T13:33:59;94246.97;;;6.95;57.37
3150;BME280;32503;47.748;8.960;2023-01-16T13:37:14;94256.91;;;6.95;57.98
3150;BME280;32503;47.748;8.960;2023-01-16T13:40:27;94236.22;;;6.88;58.29
3150;BME280;32503;47.748;8.960;2023-01-16T13:42:59;94232.06;;;6.83;58.61
3150;BME280;32503;47.748;8.960;2023-01-16T13:45:56;94229.81;;;6.75;57.28
3150;BME280;32503;47.748;8.960;2023-01-16T13:48:29;94203.09;;;6.57;56.99
3150;BME280;32503;47.748;8.960;2023-01-16T13:50:59;94216.03;;;6.73;56.13
3150;BME280;32503;47.748;8.960;2023-01-16T13:53:29;94207.97;;;6.73;55.36
3150;BME280;32503;47.748;8.960;2023-01-16T13:56:06;94202.63;;;6.69;55.28
3150;BME280;32503;47.748;8.960;2023-01-16T13:58:38;94208.00;;;6.69;54.42
3150;BME280;32503;47.748;8.960;2023-01-16T14:01:36;94196.84;;;6.74;55.04
3150;BME280;32503;47.748;8.960;2023-01-16T14:04:31;94175.00;;;6.69;55.18